sensor_id;sensor_type;location;lat;lon;timestamp;P1;durP1;ratioP1;P2;durP2;ratioP2
47790;SDS011;33547;49.044;1.156;2022-09-01T00:01:54;2.60;;;1.30;;
47790;SDS011;33547;49.044;1.156;2022-09-01T00:04:22;1.50;;;1.40;;
47790;SDS011;33547;49.044;1.156;2022-09-01T00:06:51;1.40;;;1.15;;
47790;SDS011;33547;49.044;1.156;2022-09-01T00:09:21;2.97;;;1.65;;
47790;SDS011;33547;49.044;1.156;2022-09-01T00:11:49;1.75;;;1.38;;
47790;SDS011;33547;49.044;1.156;2022-09-01T00:14:19;1.50;;;1.40;;
47790;SDS011;33547;49.044;1.156;2022-09-01T00:16:51;2.15;;;1.48;;
47790;SDS011;33547;49.044;1.156;2022-09-01T00:19:18;2.85;;;1.20;;
47790;SDS011;33547;49.044;1.156;2022-09-01T00:21:45;1.65;;;1.55;;
47790;SDS011;33547;49.044;1.156;2022-09-01T00:24:12;1.20;;;1.10;;
47790;SDS011;33547;49.044;1.156;2022-09-01T00:26:40;1.33;;;1.23;;
47790;SDS011;33547;49.044;1.156;2022-09-01T00:29:06;1.75;;;1.20;;
47790;SDS011;33547;49.044;1.156;2022-09-01T00:31:32;1.65;;;1.10;;
47790;SDS011;33547;49.044;1.156;2022-09-01T00:33:59;1.77;;;1.25;;
47790;SDS011;33547;49.044;1.156;2022-09-01T00:36:25;1.83;;;1.20;;
47790;SDS011;33547;49.044;1.156;2022-09-01T00:38:52;1.50;;;1.40;;
47790;SDS011;33547;49.044;1.156;2022-09-01T00:41:18;1.35;;;1.25;;
47790;SDS011;33547;49.044;1.156;2022-09-01T00:43:49;2.13;;;1.42;;
47790;SDS011;33547;49.044;1.156;2022-09-01T00:46:26;3.38;;;1.67;;
47790;SDS011;33547;49.044;1.156;2022-09-01T00:49:42;1.27;;;1.13;;
47790;SDS011;33547;49.044;1.156;2022-09-01T00:51:49;1.25;;;1.15;;
47790;SDS011;33547;49.044;1.156;2022-09-01T00:54:28;1.20;;;1.10;;
47790;SDS011;33547;49.044;1.156;2022-09-01T00:56:59;1.40;;;1.30;;
47790;SDS011;33547;49.044;1.156;2022-09-01T00:59:28;1.58;;;1.35;;
47790;SDS011;33547;49.044;1.156;2022-09-01T01:01:55;1.10;;;1.10;;
47790;SDS011;33547;49.044;1.156;2022-09-01T01:04:22;1.38;;;1.27;;
47790;SDS011;33547;49.044;1.156;2022-09-01T01:06:50;1.27;;;1.10;;
47790;SDS011;33547;49.044;1.156;2022-09-01T01:09:26;2.10;;;1.15;;
47790;SDS011;33547;49.044;1.156;2022-09-01T01:11:58;1.08;;;1.02;;
47790;SDS011;33547;49.044;1.156;2022-09-01T01:14:27;1.30;;;1.20;;
47790;SDS011;33547;49.044;1.156;2022-09-01T01:16:56;1.17;;;1.08;;
47790;SDS011;33547;49.044;1.156;2022-09-01T01:19:36;1.67;;;1.30;;
47790;SDS011;33547;49.044;1.156;2022-09-01T01:22:46;1.40;;;1.10;;
47790;SDS011;33547;49.044;1.156;2022-09-01T01:25:41;1.50;;;1.40;;
47790;SDS011;33547;49.044;1.156;2022-09-01T01:28:23;2.17;;;1.35;;
47790;SDS011;33547;49.044;1.156;2022-09-01T01:30:55;1.40;;;1.30;;
47790;SDS011;33547;49.044;1.156;2022-09-01T01:33:26;1.02;;;1.02;;
47790;SDS011;33547;49.044;1.156;2022-09-01T01:36:01;1.83;;;1.20;;
47790;SDS011;33547;49.044;1.156;2022-09-01T01:38:27;1.20;;;1.10;;
47790;SDS011;33547;49.044;1.156;2022-09-01T01:40:54;1.10;;;1.00;;
47790;SDS011;33547;49.044;1.156;2022-09-01T01:43:21;1.38;;;1.27;;
47790;SDS011;33547;49.044;1.156;2022-09-01T01:45:48;1.23;;;1.13;;
47790;SDS011;33547;49.044;1.156;2022-09-01T01:48:20;0.95;;;0.80;;
47790;SDS011;33547;49.044;1.156;2022-09-01T01:50:49;1.52;;;1.15;;
47790;SDS011;33547;49.044;1.156;2022-09-01T01:53:17;1.48;;;1.17;;
47790;SDS011;33547;49.044;1.156;2022-09-01T01:55:44;1.85;;;1.17;;
47790;SDS011;33547;49.044;1.156;2022-09-01T01:58:15;1.23;;;0.93;;
47790;SDS011;33547;49.044;1.156;2022-09-01T02:00:43;1.98;;;1.15;;
47790;SDS011;33547;49.044;1.156;2022-09-01T02:03:11;1.60;;;1.13;;
47790;SDS011;33547;49.044;1.156;2022-09-01T02:05:46;1.50;;;1.20;;
47790;SDS011;33547;49.044;1.156;2022-09-01T02:08:15;1.27;;;1.10;;
47790;SDS011;33547;49.044;1.156;2022-09-01T02:10:46;1.17;;;1.10;;
47790;SDS011;33547;49.044;1.156;2022-09-01T02:13:16;1.25;;;1.15;;
47790;SDS011;33547;49.044;1.156;2022-09-01T02:15:48;1.58;;;1.20;;
47790;SDS011;33547;49.044;1.156;2022-09-01T02:18:35;1.55;;;1.15;;
47790;SDS011;33547;49.044;1.156;2022-09-01T02:21:08;1.15;;;1.08;;
47790;SDS011;33547;49.044;1.156;2022-09-01T02:23:37;1.13;;;1.02;;
47790;SDS011;33547;49.044;1.156;2022-09-01T02:26:05;1.23;;;1.05;;
47790;SDS011;33547;49.044;1.156;2022-09-01T02:28:36;1.13;;;0.90;;
47790;SDS011;33547;49.044;1.156;2022-09-01T02:31:06;1.23;;;1.20;;
47790;SDS011;33547;49.044;1.156;2022-09-01T02:33:35;1.27;;;1.10;;
47790;SDS011;33547;49.044;1.156;2022-09-01T02:36:05;1.75;;;1.20;;
47790;SDS011;33547;49.044;1.156;2022-09-01T02:38:37;1.58;;;1.48;;
47790;SDS011;33547;49.044;1.156;2022-09-01T02:41:05;1.33;;;1.08;;
47790;SDS011;33547;49.044;1.156;2022-09-01T02:43:31;1.10;;;1.10;;
47790;SDS011;33547;49.044;1.156;2022-09-01T02:45:58;1.45;;;1.35;;
47790;SDS011;33547;49.044;1.156;2022-09-01T02:48:27;2.15;;;0.90;;
47790;SDS011;33547;49.044;1.156;2022-09-01T02:51:04;1.30;;;1.20;;
47790;SDS011;33547;49.044;1.156;2022-09-01T02:53:34;1.35;;;0.98;;
47790;SDS011;33547;49.044;1.156;2022-09-01T02:56:03;1.15;;;1.15;;
47790;SDS011;33547;49.044;1.156;2022-09-01T02:58:34;1.35;;;1.20;;
47790;SDS011;33547;49.044;1.156;2022-09-01T03:01:29;2.20;;;1.23;;
47790;SDS011;33547;49.044;1.156;2022-09-01T03:04:01;1.20;;;1.13;;
47790;SDS011;33547;49.044;1.156;2022-09-01T03:06:30;1.20;;;1.10;;
47790;SDS011;33547;49.044;1.156;2022-09-01T03:08:58;1.20;;;1.10;;
47790;SDS011;33547;49.044;1.156;2022-09-01T03:11:25;1.00;;;0.82;;
47790;SDS011;33547;49.044;1.156;2022-09-01T03:13:53;0.90;;;0.90;;
47790;SDS011;33547;49.044;1.156;2022-09-01T03:16:19;2.22;;;1.33;;
47790;SDS011;33547;49.044;1.156;2022-09-01T03:18:48;1.23;;;1.10;;
47790;SDS011;33547;49.044;1.156;2022-09-01T03:21:15;1.30;;;1.20;;
47790;SDS011;33547;49.044;1.156;2022-09-01T03:23:42;1.10;;;1.00;;
47790;SDS011;33547;49.044;1.156;2022-09-01T03:26:09;1.02;;;0.90;;
47790;SDS011;33547;49.044;1.156;2022-09-01T03:28:37;1.83;;;1.05;;
47790;SDS011;33547;49.044;1.156;2022-09-01T03:31:03;0.90;;;0.90;;
47790;SDS011;33547;49.044;1.156;2022-09-01T03:33:29;1.20;;;1.10;;
47790;SDS011;33547;49.044;1.156;2022-09-01T03:35:56;2.20;;;1.38;;
47790;SDS011;33547;49.044;1.156;2022-09-01T03:38:23;1.80;;;1.15;;
47790;SDS011;33547;49.044;1.156;2022-09-01T03:40:51;1.08;;;0.98;;
47790;SDS011;33547;49.044;1.156;2022-09-01T03:43:23;1.23;;;1.10;;
47790;SDS011;33547;49.044;1.156;2022-09-01T03:45:52;1.33;;;1.23;;
47790;SDS011;33547;49.044;1.156;2022-09-01T03:48:20;1.42;;;1.15;;
47790;SDS011;33547;49.044;1.156;2022-09-01T03:50:50;1.35;;;1.27;;
47790;SDS011;33547;49.044;1.156;2022-09-01T03:53:17;1.25;;;1.15;;
47790;SDS011;33547;49.044;1.156;2022-09-01T03:55:47;1.15;;;1.00;;
47790;SDS011;33547;49.044;1.156;2022-09-01T03:58:15;1.10;;;1.00;;
47790;SDS011;33547;49.044;1.156;2022-09-01T04:00:44;1.70;;;1.40;;
47790;SDS011;33547;49.044;1.156;2022-09-01T04:03:19;1.38;;;1.20;;
47790;SDS011;33547;49.044;1.156;2022-09-01T04:05:49;0.93;;;0.93;;
47790;SDS011;33547;49.044;1.156;2022-09-01T04:08:17;1.10;;;0.98;;
47790;SDS011;33547;49.044;1.156;2022-09-01T04:10:46;1.10;;;1.10;;
47790;SDS011;33547;49.044;1.156;2022-09-01T04:13:28;1.35;;;1.25;;
47790;SDS011;33547;49.044;1.156;2022-09-01T04:15:58;1.10;;;1.00;;
47790;SDS011;33547;49.044;1.156;2022-09-01T04:18:24;1.00;;;0.90;;
47790;SDS011;33547;49.044;1.156;2022-09-01T04:20:54;1.25;;;0.90;;
47790;SDS011;33547;49.044;1.156;2022-09-01T04:25:58;1.27;;;1.17;;
47790;SDS011;33547;49.044;1.156;2022-09-01T04:28:33;1.20;;;1.13;;
47790;SDS011;33547;49.044;1.156;2022-09-01T04:31:06;1.02;;;0.90;;
47790;SDS011;33547;49.044;1.156;2022-09-01T04:33:38;1.30;;;1.20;;
47790;SDS011;33547;49.044;1.156;2022-09-01T04:36:06;1.17;;;1.08;;
47790;SDS011;33547;49.044;1.156;2022-09-01T04:38:56;0.90;;;0.90;;
47790;SDS011;33547;49.044;1.156;2022-09-01T04:41:29;1.35;;;1.10;;
47790;SDS011;33547;49.044;1.156;2022-09-01T04:43:56;1.35;;;1.10;;
47790;SDS011;33547;49.044;1.156;2022-09-01T04:46:27;1.30;;;1.20;;
47790;SDS011;33547;49.044;1.156;2022-09-01T04:48:55;0.98;;;0.85;;
47790;SDS011;33547;49.044;1.156;2022-09-01T04:51:22;1.38;;;1.00;;
47790;SDS011;33547;49.044;1.156;2022-09-01T04:53:52;0.95;;;0.93;;
47790;SDS011;33547;49.044;1.156;2022-09-01T04:56:20;0.88;;;0.88;;
47790;SDS011;33547;49.044;1.156;2022-09-01T04:58:47;1.20;;;1.10;;
47790;SDS011;33547;49.044;1.156;2022-09-01T05:01:21;1.20;;;1.10;;
47790;SDS011;33547;49.044;1.156;2022-09-01T05:03:49;1.58;;;1.30;;
47790;SDS011;33547;49.044;1.156;2022-09-01T05:06:25;1.77;;;1.45;;
47790;SDS011;33547;49.044;1.156;2022-09-01T05:08:53;3.08;;;1.65;;
47790;SDS011;33547;49.044;1.156;2022-09-01T05:11:23;2.08;;;1.70;;
47790;SDS011;33547;49.044;1.156;2022-09-01T05:13:49;5.18;;;1.88;;
47790;SDS011;33547;49.044;1.156;2022-09-01T05:16:21;3.75;;;2.03;;
47790;SDS011;33547;49.044;1.156;2022-09-01T05:18:51;3.95;;;2.03;;
47790;SDS011;33547;49.044;1.156;2022-09-01T05:21:21;3.47;;;1.98;;
47790;SDS011;33547;49.044;1.156;2022-09-01T05:23:52;4.43;;;1.85;;
47790;SDS011;33547;49.044;1.156;2022-09-01T05:26:24;3.03;;;1.85;;
47790;SDS011;33547;49.044;1.156;2022-09-01T05:31:23;2.58;;;1.92;;
47790;SDS011;33547;49.044;1.156;2022-09-01T05:33:52;2.42;;;1.92;;
47790;SDS011;33547;49.044;1.156;2022-09-01T05:36:20;4.57;;;2.30;;
47790;SDS011;33547;49.044;1.156;2022-09-01T05:38:47;4.70;;;2.20;;
47790;SDS011;33547;49.044;1.156;2022-09-01T05:41:16;1.95;;;1.80;;
47790;SDS011;33547;49.044;1.156;2022-09-01T05:43:45;3.72;;;2.13;;
47790;SDS011;33547;49.044;1.156;2022-09-01T05:46:18;3.38;;;2.50;;
47790;SDS011;33547;49.044;1.156;2022-09-01T05:48:49;6.15;;;2.40;;
47790;SDS011;33547;49.044;1.156;2022-09-01T05:51:18;4.07;;;2.40;;
47790;SDS011;33547;49.044;1.156;2022-09-01T05:53:50;5.65;;;2.33;;
47790;SDS011;33547;49.044;1.156;2022-09-01T05:56:20;5.25;;;2.28;;
47790;SDS011;33547;49.044;1.156;2022-09-01T05:58:47;4.10;;;1.80;;
47790;SDS011;33547;49.044;1.156;2022-09-01T06:01:18;7.20;;;2.30;;
47790;SDS011;33547;49.044;1.156;2022-09-01T06:03:50;3.42;;;2.10;;
47790;SDS011;33547;49.044;1.156;2022-09-01T06:06:22;3.95;;;2.28;;
47790;SDS011;33547;49.044;1.156;2022-09-01T06:08:52;3.17;;;2.03;;
47790;SDS011;33547;49.044;1.156;2022-09-01T06:11:23;2.65;;;1.65;;
47790;SDS011;33547;49.044;1.156;2022-09-01T06:13:51;3.70;;;2.00;;
47790;SDS011;33547;49.044;1.156;2022-09-01T06:16:21;4.78;;;1.75;;
47790;SDS011;33547;49.044;1.156;2022-09-01T06:18:48;3.03;;;2.08;;
47790;SDS011;33547;49.044;1.156;2022-09-01T06:21:19;6.88;;;2.15;;
47790;SDS011;33547;49.044;1.156;2022-09-01T06:23:49;6.20;;;2.33;;
47790;SDS011;33547;49.044;1.156;2022-09-01T06:26:24;4.43;;;2.13;;
47790;SDS011;33547;49.044;1.156;2022-09-01T06:28:57;5.32;;;2.25;;
47790;SDS011;33547;49.044;1.156;2022-09-01T06:31:28;2.67;;;2.00;;
47790;SDS011;33547;49.044;1.156;2022-09-01T06:33:58;5.63;;;2.65;;
47790;SDS011;33547;49.044;1.156;2022-09-01T06:36:27;7.63;;;2.55;;
47790;SDS011;33547;49.044;1.156;2022-09-01T06:38:58;5.10;;;2.67;;
47790;SDS011;33547;49.044;1.156;2022-09-01T06:41:27;7.00;;;2.92;;
47790;SDS011;33547;49.044;1.156;2022-09-01T06:43:54;8.98;;;2.60;;
47790;SDS011;33547;49.044;1.156;2022-09-01T06:46:21;5.38;;;2.97;;
47790;SDS011;33547;49.044;1.156;2022-09-01T06:48:53;5.70;;;2.78;;
47790;SDS011;33547;49.044;1.156;2022-09-01T06:51:23;5.22;;;2.78;;
47790;SDS011;33547;49.044;1.156;2022-09-01T06:53:54;6.03;;;2.95;;
47790;SDS011;33547;49.044;1.156;2022-09-01T06:56:23;7.82;;;2.95;;
47790;SDS011;33547;49.044;1.156;2022-09-01T06:58:58;6.93;;;2.60;;
47790;SDS011;33547;49.044;1.156;2022-09-01T07:01:29;9.00;;;2.85;;
47790;SDS011;33547;49.044;1.156;2022-09-01T07:03:56;8.00;;;3.15;;
47790;SDS011;33547;49.044;1.156;2022-09-01T07:06:22;8.15;;;3.15;;
47790;SDS011;33547;49.044;1.156;2022-09-01T07:09:00;5.75;;;3.00;;
47790;SDS011;33547;49.044;1.156;2022-09-01T07:11:28;6.80;;;3.65;;
47790;SDS011;33547;49.044;1.156;2022-09-01T07:13:59;7.57;;;3.00;;
47790;SDS011;33547;49.044;1.156;2022-09-01T07:16:29;5.18;;;3.28;;
47790;SDS011;33547;49.044;1.156;2022-09-01T07:19:01;6.90;;;3.30;;
47790;SDS011;33547;49.044;1.156;2022-09-01T07:21:28;7.53;;;3.47;;
47790;SDS011;33547;49.044;1.156;2022-09-01T07:23:58;6.47;;;2.83;;
47790;SDS011;33547;49.044;1.156;2022-09-01T07:26:27;6.65;;;3.00;;
47790;SDS011;33547;49.044;1.156;2022-09-01T07:28:53;4.30;;;2.60;;
47790;SDS011;33547;49.044;1.156;2022-09-01T07:31:22;5.38;;;2.72;;
47790;SDS011;33547;49.044;1.156;2022-09-01T07:33:53;5.80;;;3.70;;
47790;SDS011;33547;49.044;1.156;2022-09-01T07:36:22;7.65;;;4.05;;
47790;SDS011;33547;49.044;1.156;2022-09-01T07:38:49;7.72;;;3.83;;
47790;SDS011;33547;49.044;1.156;2022-09-01T07:41:18;5.43;;;3.60;;
47790;SDS011;33547;49.044;1.156;2022-09-01T07:43:46;4.97;;;3.55;;
47790;SDS011;33547;49.044;1.156;2022-09-01T07:46:15;7.72;;;3.22;;
47790;SDS011;33547;49.044;1.156;2022-09-01T07:48:41;5.38;;;2.88;;
47790;SDS011;33547;49.044;1.156;2022-09-01T07:51:06;9.73;;;3.90;;
47790;SDS011;33547;49.044;1.156;2022-09-01T07:53:35;6.00;;;3.60;;
47790;SDS011;33547;49.044;1.156;2022-09-01T07:56:08;8.52;;;3.35;;
47790;SDS011;33547;49.044;1.156;2022-09-01T07:58:36;7.05;;;3.00;;
47790;SDS011;33547;49.044;1.156;2022-09-01T08:01:08;7.07;;;4.00;;
47790;SDS011;33547;49.044;1.156;2022-09-01T08:03:42;5.68;;;3.30;;
47790;SDS011;33547;49.044;1.156;2022-09-01T08:06:11;10.13;;;3.90;;
47790;SDS011;33547;49.044;1.156;2022-09-01T08:08:43;5.93;;;3.75;;
47790;SDS011;33547;49.044;1.156;2022-09-01T08:11:18;5.75;;;2.97;;
47790;SDS011;33547;49.044;1.156;2022-09-01T08:13:49;9.45;;;3.42;;
47790;SDS011;33547;49.044;1.156;2022-09-01T08:16:16;5.93;;;3.53;;
47790;SDS011;33547;49.044;1.156;2022-09-01T08:18:43;7.10;;;3.30;;
47790;SDS011;33547;49.044;1.156;2022-09-01T08:21:11;5.72;;;3.05;;
47790;SDS011;33547;49.044;1.156;2022-09-01T08:23:39;7.43;;;3.30;;
47790;SDS011;33547;49.044;1.156;2022-09-01T08:26:07;4.82;;;2.50;;
47790;SDS011;33547;49.044;1.156;2022-09-01T08:28:39;6.28;;;3.35;;
47790;SDS011;33547;49.044;1.156;2022-09-01T08:31:06;8.73;;;3.55;;
47790;SDS011;33547;49.044;1.156;2022-09-01T08:33:38;10.07;;;3.25;;
47790;SDS011;33547;49.044;1.156;2022-09-01T08:36:06;3.70;;;2.60;;
47790;SDS011;33547;49.044;1.156;2022-09-01T08:38:34;5.40;;;3.67;;
47790;SDS011;33547;49.044;1.156;2022-09-01T08:41:00;11.48;;;3.42;;
47790;SDS011;33547;49.044;1.156;2022-09-01T08:46:32;7.93;;;3.45;;
47790;SDS011;33547;49.044;1.156;2022-09-01T08:49:05;7.82;;;2.70;;
47790;SDS011;33547;49.044;1.156;2022-09-01T08:51:52;6.72;;;2.50;;
47790;SDS011;33547;49.044;1.156;2022-09-01T08:54:46;4.65;;;2.75;;
47790;SDS011;33547;49.044;1.156;2022-09-01T09:00:06;5.70;;;3.50;;
47790;SDS011;33547;49.044;1.156;2022-09-01T09:02:45;5.13;;;2.80;;
47790;SDS011;33547;49.044;1.156;2022-09-01T09:11:03;8.30;;;3.33;;
47790;SDS011;33547;49.044;1.156;2022-09-01T09:13:58;6.03;;;3.03;;
47790;SDS011;33547;49.044;1.156;2022-09-01T09:19:21;3.70;;;2.35;;
47790;SDS011;33547;49.044;1.156;2022-09-01T09:21:54;5.07;;;2.75;;
47790;SDS011;33547;49.044;1.156;2022-09-01T09:27:38;5.97;;;3.20;;
47790;SDS011;33547;49.044;1.156;2022-09-01T09:35:24;3.45;;;2.70;;
47790;SDS011;33547;49.044;1.156;2022-09-01T09:38:14;4.10;;;2.70;;
47790;SDS011;33547;49.044;1.156;2022-09-01T09:41:03;2.85;;;2.40;;
47790;SDS011;33547;49.044;1.156;2022-09-01T09:43:36;2.75;;;2.30;;
47790;SDS011;33547;49.044;1.156;2022-09-01T09:46:19;3.00;;;2.47;;
47790;SDS011;33547;49.044;1.156;2022-09-01T09:51:46;2.50;;;2.30;;
47790;SDS011;33547;49.044;1.156;2022-09-01T09:54:18;6.85;;;2.53;;
47790;SDS011;33547;49.044;1.156;2022-09-01T09:59:48;3.72;;;2.60;;
47790;SDS011;33547;49.044;1.156;2022-09-01T10:02:40;6.32;;;2.70;;
47790;SDS011;33547;49.044;1.156;2022-09-01T10:11:01;2.75;;;2.30;;
47790;SDS011;33547;49.044;1.156;2022-09-01T10:13:29;2.40;;;2.20;;
47790;SDS011;33547;49.044;1.156;2022-09-01T10:16:13;4.25;;;2.72;;
47790;SDS011;33547;49.044;1.156;2022-09-01T10:18:53;2.53;;;2.30;;
47790;SDS011;33547;49.044;1.156;2022-09-01T10:21:30;4.15;;;2.38;;
47790;SDS011;33547;49.044;1.156;2022-09-01T10:24:04;3.55;;;2.50;;
47790;SDS011;33547;49.044;1.156;2022-09-01T10:27:00;4.45;;;2.53;;
47790;SDS011;33547;49.044;1.156;2022-09-01T10:29:39;4.75;;;2.70;;
47790;SDS011;33547;49.044;1.156;2022-09-01T10:32:10;5.05;;;2.60;;
47790;SDS011;33547;49.044;1.156;2022-09-01T10:34:42;3.97;;;2.40;;
47790;SDS011;33547;49.044;1.156;2022-09-01T10:37:10;5.80;;;2.50;;
47790;SDS011;33547;49.044;1.156;2022-09-01T10:42:46;4.40;;;2.25;;
47790;SDS011;33547;49.044;1.156;2022-09-01T10:45:31;6.05;;;2.60;;
47790;SDS011;33547;49.044;1.156;2022-09-01T11:17:53;4.40;;;2.80;;
47790;SDS011;33547;49.044;1.156;2022-09-01T11:20:28;2.85;;;2.25;;
47790;SDS011;33547;49.044;1.156;2022-09-01T11:30:56;4.32;;;2.38;;
47790;SDS011;33547;49.044;1.156;2022-09-01T11:47:39;5.43;;;2.63;;
47790;SDS011;33547;49.044;1.156;2022-09-01T11:52:55;6.18;;;2.80;;
47790;SDS011;33547;49.044;1.156;2022-09-01T11:55:32;3.30;;;2.40;;
47790;SDS011;33547;49.044;1.156;2022-09-01T11:58:00;5.43;;;2.55;;
47790;SDS011;33547;49.044;1.156;2022-09-01T12:00:29;4.07;;;2.63;;
47790;SDS011;33547;49.044;1.156;2022-09-01T12:05:54;5.07;;;2.53;;
47790;SDS011;33547;49.044;1.156;2022-09-01T12:08:26;5.80;;;2.22;;
47790;SDS011;33547;49.044;1.156;2022-09-01T12:11:40;5.40;;;2.90;;
47790;SDS011;33547;49.044;1.156;2022-09-01T12:13:59;2.50;;;2.30;;
47790;SDS011;33547;49.044;1.156;2022-09-01T12:16:28;3.90;;;2.60;;
47790;SDS011;33547;49.044;1.156;2022-09-01T12:18:58;4.80;;;2.70;;
47790;SDS011;33547;49.044;1.156;2022-09-01T12:21:32;2.90;;;2.63;;
47790;SDS011;33547;49.044;1.156;2022-09-01T12:24:18;3.97;;;2.10;;
47790;SDS011;33547;49.044;1.156;2022-09-01T12:26:47;2.92;;;2.67;;
47790;SDS011;33547;49.044;1.156;2022-09-01T12:29:18;3.30;;;2.78;;
47790;SDS011;33547;49.044;1.156;2022-09-01T12:31:46;4.55;;;2.50;;
47790;SDS011;33547;49.044;1.156;2022-09-01T12:37:03;2.95;;;2.47;;
47790;SDS011;33547;49.044;1.156;2022-09-01T12:39:44;2.78;;;2.25;;
47790;SDS011;33547;49.044;1.156;2022-09-01T12:44:44;2.83;;;2.40;;
47790;SDS011;33547;49.044;1.156;2022-09-01T12:49:57;2.45;;;2.22;;
47790;SDS011;33547;49.044;1.156;2022-09-01T12:52:25;2.58;;;2.35;;
47790;SDS011;33547;49.044;1.156;2022-09-01T12:57:28;2.60;;;2.40;;
47790;SDS011;33547;49.044;1.156;2022-09-01T13:00:08;2.63;;;2.42;;
47790;SDS011;33547;49.044;1.156;2022-09-01T13:02:49;3.10;;;2.80;;
47790;SDS011;33547;49.044;1.156;2022-09-01T13:05:24;2.55;;;2.35;;
47790;SDS011;33547;49.044;1.156;2022-09-01T13:08:06;3.17;;;2.97;;
47790;SDS011;33547;49.044;1.156;2022-09-01T13:13:13;3.83;;;2.83;;
47790;SDS011;33547;49.044;1.156;2022-09-01T13:15:43;2.70;;;2.50;;
47790;SDS011;33547;49.044;1.156;2022-09-01T13:18:16;2.70;;;2.50;;
47790;SDS011;33547;49.044;1.156;2022-09-01T13:20:45;3.38;;;2.70;;
47790;SDS011;33547;49.044;1.156;2022-09-01T13:23:12;3.85;;;2.55;;
47790;SDS011;33547;49.044;1.156;2022-09-01T13:25:39;3.38;;;2.50;;
47790;SDS011;33547;49.044;1.156;2022-09-01T13:28:08;2.70;;;2.50;;
47790;SDS011;33547;49.044;1.156;2022-09-01T13:30:34;3.70;;;2.42;;
47790;SDS011;33547;49.044;1.156;2022-09-01T13:33:00;3.55;;;2.40;;
47790;SDS011;33547;49.044;1.156;2022-09-01T13:35:26;3.45;;;2.95;;
47790;SDS011;33547;49.044;1.156;2022-09-01T13:37:52;3.70;;;2.55;;
47790;SDS011;33547;49.044;1.156;2022-09-01T13:40:18;2.72;;;2.53;;
47790;SDS011;33547;49.044;1.156;2022-09-01T13:42:47;2.97;;;2.78;;
47790;SDS011;33547;49.044;1.156;2022-09-01T13:45:16;2.97;;;2.78;;
47790;SDS011;33547;49.044;1.156;2022-09-01T13:47:47;2.97;;;2.65;;
47790;SDS011;33547;49.044;1.156;2022-09-01T13:50:14;3.67;;;2.85;;
47790;SDS011;33547;49.044;1.156;2022-09-01T13:52:44;2.85;;;2.63;;
47790;SDS011;33547;49.044;1.156;2022-09-01T13:55:15;2.83;;;2.63;;
47790;SDS011;33547;49.044;1.156;2022-09-01T13:57:47;2.80;;;2.60;;
47790;SDS011;33547;49.044;1.156;2022-09-01T14:00:15;3.20;;;2.90;;
47790;SDS011;33547;49.044;1.156;2022-09-01T14:02:49;2.58;;;2.38;;
47790;SDS011;33547;49.044;1.156;2022-09-01T14:05:19;3.08;;;2.80;;
47790;SDS011;33547;49.044;1.156;2022-09-01T14:07:57;2.60;;;2.40;;
47790;SDS011;33547;49.044;1.156;2022-09-01T14:10:25;2.65;;;2.45;;
47790;SDS011;33547;49.044;1.156;2022-09-01T14:12:53;3.10;;;2.70;;
47790;SDS011;33547;49.044;1.156;2022-09-01T14:15:20;2.22;;;2.13;;
47790;SDS011;33547;49.044;1.156;2022-09-01T14:17:47;2.58;;;2.38;;
47790;SDS011;33547;49.044;1.156;2022-09-01T14:20:17;2.88;;;2.63;;
47790;SDS011;33547;49.044;1.156;2022-09-01T14:22:46;2.67;;;2.30;;
47790;SDS011;33547;49.044;1.156;2022-09-01T14:25:14;3.90;;;2.92;;
47790;SDS011;33547;49.044;1.156;2022-09-01T14:27:42;2.70;;;2.50;;
47790;SDS011;33547;49.044;1.156;2022-09-01T14:30:10;2.60;;;2.40;;
47790;SDS011;33547;49.044;1.156;2022-09-01T14:32:41;2.65;;;2.55;;
47790;SDS011;33547;49.044;1.156;2022-09-01T14:35:07;2.53;;;2.42;;
47790;SDS011;33547;49.044;1.156;2022-09-01T14:37:35;2.55;;;2.35;;
47790;SDS011;33547;49.044;1.156;2022-09-01T14:40:02;2.83;;;2.63;;
47790;SDS011;33547;49.044;1.156;2022-09-01T14:42:32;2.50;;;2.30;;
47790;SDS011;33547;49.044;1.156;2022-09-01T14:44:58;2.88;;;2.63;;
47790;SDS011;33547;49.044;1.156;2022-09-01T14:47:26;2.42;;;2.33;;
47790;SDS011;33547;49.044;1.156;2022-09-01T14:49:52;2.95;;;2.65;;
47790;SDS011;33547;49.044;1.156;2022-09-01T14:52:18;3.08;;;2.78;;
47790;SDS011;33547;49.044;1.156;2022-09-01T14:54:46;2.88;;;2.67;;
47790;SDS011;33547;49.044;1.156;2022-09-01T14:57:12;3.58;;;2.95;;
47790;SDS011;33547;49.044;1.156;2022-09-01T14:59:39;3.05;;;2.60;;
47790;SDS011;33547;49.044;1.156;2022-09-01T15:02:06;3.75;;;2.78;;
47790;SDS011;33547;49.044;1.156;2022-09-01T15:04:33;2.67;;;2.47;;
47790;SDS011;33547;49.044;1.156;2022-09-01T15:07:00;2.60;;;2.40;;
47790;SDS011;33547;49.044;1.156;2022-09-01T15:09:30;3.00;;;2.70;;
47790;SDS011;33547;49.044;1.156;2022-09-01T15:11:56;3.90;;;2.58;;
47790;SDS011;33547;49.044;1.156;2022-09-01T15:14:22;2.70;;;2.50;;
47790;SDS011;33547;49.044;1.156;2022-09-01T15:16:48;3.65;;;2.75;;
47790;SDS011;33547;49.044;1.156;2022-09-01T15:19:15;3.20;;;2.90;;
47790;SDS011;33547;49.044;1.156;2022-09-01T15:21:41;3.25;;;2.38;;
47790;SDS011;33547;49.044;1.156;2022-09-01T15:24:09;2.90;;;2.70;;
47790;SDS011;33547;49.044;1.156;2022-09-01T15:26:35;3.30;;;3.10;;
47790;SDS011;33547;49.044;1.156;2022-09-01T15:29:02;2.75;;;2.55;;
47790;SDS011;33547;49.044;1.156;2022-09-01T15:31:29;2.63;;;2.53;;
47790;SDS011;33547;49.044;1.156;2022-09-01T15:33:58;3.13;;;2.83;;
47790;SDS011;33547;49.044;1.156;2022-09-01T15:36:26;3.08;;;2.80;;
47790;SDS011;33547;49.044;1.156;2022-09-01T15:38:54;2.92;;;2.60;;
47790;SDS011;33547;49.044;1.156;2022-09-01T15:41:26;3.00;;;2.80;;
47790;SDS011;33547;49.044;1.156;2022-09-01T15:43:54;3.22;;;2.50;;
47790;SDS011;33547;49.044;1.156;2022-09-01T15:46:21;2.75;;;2.55;;
47790;SDS011;33547;49.044;1.156;2022-09-01T15:48:56;2.72;;;2.47;;
47790;SDS011;33547;49.044;1.156;2022-09-01T15:51:29;3.28;;;3.08;;
47790;SDS011;33547;49.044;1.156;2022-09-01T15:54:05;3.03;;;2.83;;
47790;SDS011;33547;49.044;1.156;2022-09-01T15:56:35;2.50;;;2.40;;
47790;SDS011;33547;49.044;1.156;2022-09-01T15:59:01;2.97;;;2.78;;
47790;SDS011;33547;49.044;1.156;2022-09-01T16:01:30;2.85;;;2.65;;
47790;SDS011;33547;49.044;1.156;2022-09-01T16:04:03;3.75;;;2.60;;
47790;SDS011;33547;49.044;1.156;2022-09-01T16:06:31;2.80;;;2.60;;
47790;SDS011;33547;49.044;1.156;2022-09-01T16:08:58;3.50;;;3.25;;
47790;SDS011;33547;49.044;1.156;2022-09-01T16:11:24;3.78;;;2.92;;
47790;SDS011;33547;49.044;1.156;2022-09-01T16:13:51;3.33;;;3.03;;
47790;SDS011;33547;49.044;1.156;2022-09-01T16:24:52;5.57;;;3.10;;
47790;SDS011;33547;49.044;1.156;2022-09-01T16:27:28;5.28;;;3.92;;
47790;SDS011;33547;49.044;1.156;2022-09-01T16:30:05;6.40;;;3.95;;
47790;SDS011;33547;49.044;1.156;2022-09-01T16:32:38;5.35;;;3.17;;
47790;SDS011;33547;49.044;1.156;2022-09-01T16:35:11;3.42;;;3.20;;
47790;SDS011;33547;49.044;1.156;2022-09-01T16:37:51;3.55;;;3.25;;
47790;SDS011;33547;49.044;1.156;2022-09-01T16:40:49;4.72;;;3.45;;
47790;SDS011;33547;49.044;1.156;2022-09-01T16:52:14;7.88;;;3.33;;
47790;SDS011;33547;49.044;1.156;2022-09-01T17:00:19;5.90;;;3.72;;
47790;SDS011;33547;49.044;1.156;2022-09-01T17:05:45;8.82;;;3.85;;
47790;SDS011;33547;49.044;1.156;2022-09-01T17:08:24;3.80;;;3.33;;
47790;SDS011;33547;49.044;1.156;2022-09-01T17:21:48;6.72;;;3.55;;
47790;SDS011;33547;49.044;1.156;2022-09-01T17:26:50;5.53;;;3.55;;
47790;SDS011;33547;49.044;1.156;2022-09-01T17:29:18;5.03;;;3.35;;
47790;SDS011;33547;49.044;1.156;2022-09-01T17:40:47;3.65;;;3.35;;
47790;SDS011;33547;49.044;1.156;2022-09-01T17:43:43;4.50;;;4.10;;
47790;SDS011;33547;49.044;1.156;2022-09-01T17:49:14;4.50;;;4.00;;
47790;SDS011;33547;49.044;1.156;2022-09-01T18:06:01;8.35;;;3.83;;
47790;SDS011;33547;49.044;1.156;2022-09-01T18:08:42;6.78;;;3.92;;
47790;SDS011;33547;49.044;1.156;2022-09-01T18:16:48;5.63;;;3.30;;